Time;durP1;ratioP1;P1;durP2;ratioP2;P2;SDS_P1;SDS_P2;PMS_P1;PMS_P2;Temp;Humidity;BMP_temperature;BMP_pressure;BME280_temperature;BME280_humidity;BME280_pressure;Samples;Min_cycle;Max_cycle;Signal;HPM_P1;HPM_P2
2023/07/04 05:20:48;;;;;;;10.70;8.27;;;;;;;;;;4942997;29;20095;-90
2023/07/04 05:45:05;;;;;;;13.40;9.10;;;;;;;;;;4939351;29;20058;-93
2023/07/04 05:47:34;;;;;;;14.85;9.50;;;;;;;;;;4923222;29;20027;-90
2023/07/04 05:50:35;;;;;;;13.52;9.38;;;;;;;;;;4931452;29;20032;-88
2023/07/04 05:56:49;;;;;;;12.23;8.98;;;;;;;;;;4863168;29;20097;-88
2023/07/04 05:59:49;;;;;;;12.57;8.93;;;;;;;;;;4860094;29;20028;-95
2023/07/04 06:05:19;;;;;;;13.25;9.38;;;;;;;;;;4944270;23;20067;-88
2023/07/04 06:08:11;;;;;;;15.25;8.55;;;;;;;;;;4903677;29;20084;-96
2023/07/04 06:11:11;;;;;;;12.68;9.13;;;;;;;;;;4903814;29;20035;-95
2023/07/04 06:13:41;;;;;;;11.70;8.70;;;;;;;;;;4904018;29;20031;-89
2023/07/04 06:16:30;;;;;;;12.63;9.05;;;;;;;;;;4905167;29;20068;-96
2023/07/04 06:19:26;;;;;;;;;;;;;;;;;;;;;
2023/07/04 06:31:43;;;;;;;12.52;9.38;;;;;;;;;;4932316;29;20107;-96
2023/07/04 06:43:24;;;;;;;10.77;8.93;;;;;;;;;;5208830;23;20731;-93
2023/07/04 06:46:12;;;;;;;13.13;9.15;;;;;;;;;;5144579;23;20052;-96
2023/07/04 06:51:16;;;;;;;12.93;9.18;;;;;;;;;;5108997;23;20051;-92
2023/07/04 06:56:37;;;;;;;11.18;8.50;;;;;;;;;;5348720;23;20135;-96
2023/07/04 07:05:16;;;;;;;11.95;9.25;;;;;;;;;;4966119;23;20080;-89
2023/07/04 07:07:45;;;;;;;11.73;7.68;;;;;;;;;;4902869;29;20056;-89
2023/07/04 07:10:11;;;;;;;12.05;8.00;;;;;;;;;;4902960;29;20036;-90
2023/07/04 07:12:40;;;;;;;12.77;8.20;;;;;;;;;;4902577;29;20024;-93
2023/07/04 07:15:12;;;;;;;12.40;6.90;;;;;;;;;;4903098;29;20032;-91
2023/07/04 07:17:42;;;;;;;26.92;7.72;;;;;;;;;;4905864;29;20043;-91
2023/07/04 07:20:08;;;;;;;8.43;6.00;;;;;;;;;;4902880;29;20036;-91
2023/07/04 07:36:38;;;;;;;10.88;6.10;;;;;;;;;;4856359;29;20045;-93
2023/07/04 07:44:39;;;;;;;8.40;5.18;;;;;;;;;;5875041;23;20168;-96
2023/07/04 07:50:00;;;;;;;10.57;5.25;;;;;;;;;;5306109;23;20124;-95
2023/07/04 07:53:03;;;;;;;9.35;5.15;;;;;;;;;;4918969;29;20008;-96
2023/07/04 08:03:17;;;;;;;6.95;4.40;;;;;;;;;;5535587;23;20064;-93
2023/07/04 08:05:46;;;;;;;8.52;3.95;;;;;;;;;;5051687;23;20070;-89
2023/07/04 08:08:12;;;;;;;6.50;3.63;;;;;;;;;;4918791;29;20107;-90
2023/07/04 08:10:42;;;;;;;7.38;3.90;;;;;;;;;;4901531;29;20135;-90
2023/07/04 08:16:35;;;;;;;8.80;4.72;;;;;;;;;;4900325;29;20043;-94
2023/07/04 08:19:07;;;;;;;7.97;4.53;;;;;;;;;;4922438;23;20115;-90
2023/07/04 08:21:33;;;;;;;9.77;4.10;;;;;;;;;;4902773;29;20055;-92
2023/07/04 08:24:10;;;;;;;6.80;3.75;;;;;;;;;;4902012;29;20020;-93
2023/07/04 08:26:37;;;;;;;8.05;5.43;;;;;;;;;;4901407;29;20068;-93
2023/07/04 08:32:13;;;;;;;8.90;5.70;;;;;;;;;;4918643;29;20039;-93
2023/07/04 08:35:08;;;;;;;10.07;5.63;;;;;;;;;;4901868;29;20042;-93
2023/07/04 08:37:34;;;;;;;9.82;5.80;;;;;;;;;;4826456;29;20098;-91
2023/07/04 08:43:34;;;;;;;8.88;5.53;;;;;;;;;;4808088;29;20038;-96
2023/07/04 08:46:04;;;;;;;9.73;5.68;;;;;;;;;;4830925;29;20038;-94
2023/07/04 09:08:12;;;;;;;6.72;4.40;;;;;;;;;;4923276;29;20031;-96
2023/07/04 09:16:53;;;;;;;8.50;5.03;;;;;;;;;;4955325;28;20237;-91
2023/07/04 09:19:40;;;;;;;8.38;4.75;;;;;;;;;;4928494;29;20039;-96
2023/07/04 09:22:12;;;;;;;9.35;4.53;;;;;;;;;;5154262;23;21299;-95
2023/07/04 09:32:58;;;;;;;9.30;4.88;;;;;;;;;;5108806;23;20128;-96
2023/07/04 09:50:51;;;;;;;7.73;4.47;;;;;;;;;;5220163;23;20062;-92
2023/07/04 09:53:38;;;;;;;7.78;4.25;;;;;;;;;;4925341;29;20477;-96
2023/07/04 09:56:10;;;;;;;6.65;4.30;;;;;;;;;;4924120;29;20436;-96
2023/07/04 09:58:39;;;;;;;7.60;4.22;;;;;;;;;;4932164;29;20039;-92
2023/07/04 10:01:19;;;;;;;7.43;4.20;;;;;;;;;;4938979;29;20591;-92
2023/07/04 10:03:49;;;;;;;7.65;4.88;;;;;;;;;;4941565;29;20042;-93
2023/07/04 10:06:36;;;;;;;8.93;5.10;;;;;;;;;;4939551;29;20032;-95
2023/07/04 10:09:21;;;;;;;7.07;4.25;;;;;;;;;;4920397;29;20046;-96
2023/07/04 10:15:25;;;;;;;9.07;4.95;;;;;;;;;;4942645;28;20144;-95
2023/07/04 10:17:54;;;;;;;9.60;5.10;;;;;;;;;;4932721;29;20051;-96
2023/07/04 10:20:23;;;;;;;8.60;5.28;;;;;;;;;;4940101;29;20035;-95
2023/07/04 10:22:55;;;;;;;8.15;5.13;;;;;;;;;;4918702;29;20050;-94
2023/07/04 10:25:37;;;;;;;;;;;;;;;;;;;;;
2023/07/04 10:28:18;;;;;;;9.77;5.00;;;;;;;;;;4932813;29;20046;-96
2023/07/04 10:31:11;;;;;;;6.95;4.88;;;;;;;;;;4940607;29;20388;-96
2023/07/04 10:33:51;;;;;;;8.37;5.60;;;;;;;;;;4941567;29;20370;-96
2023/07/04 10:36:50;;;;;;;9.73;5.70;;;;;;;;;;4930486;29;20067;-96
2023/07/04 10:39:33;;;;;;;7.97;5.45;;;;;;;;;;4939458;29;20039;-96
2023/07/04 10:42:03;;;;;;;11.07;5.38;;;;;;;;;;4910279;29;20497;-94
2023/07/04 10:44:30;;;;;;;10.70;4.88;;;;;;;;;;4925465;29;20054;-96
2023/07/04 10:47:20;;;;;;;7.35;5.13;;;;;;;;;;4907452;29;20071;-96
2023/07/04 10:50:06;;;;;;;9.90;5.13;;;;;;;;;;4921094;29;20048;-96
2023/07/04 10:53:17;;;;;;;8.00;4.80;;;;;;;;;;4923424;29;20036;-96
2023/07/04 10:55:30;;;;;;;7.10;5.10;;;;;;;;;;4933142;29;20027;-96
2023/07/04 10:58:18;;;;;;;9.65;4.95;;;;;;;;;;4940237;29;20082;-96
2023/07/04 11:00:47;;;;;;;8.90;5.03;;;;;;;;;;4935395;29;20035;-95
2023/07/04 11:03:25;;;;;;;6.40;4.78;;;;;;;;;;4924957;29;20051;-95
2023/07/04 11:09:00;;;;;;;9.65;5.18;;;;;;;;;;4942011;29;20039;-96
2023/07/04 11:11:31;;;;;;;6.35;4.35;;;;;;;;;;4921772;29;20086;-96
2023/07/04 11:14:02;;;;;;;7.15;4.55;;;;;;;;;;4924196;29;20039;-96
2023/07/04 11:16:36;;;;;;;11.25;5.00;;;;;;;;;;4923960;29;20051;-96
2023/07/04 11:19:22;;;;;;;8.00;4.32;;;;;;;;;;4923619;29;20038;-96
2023/07/04 11:24:57;;;;;;;7.65;4.30;;;;;;;;;;4947663;29;20115;-96
2023/07/04 11:31:02;;;;;;;7.03;4.05;;;;;;;;;;4910025;29;20038;-96
2023/07/04 11:37:15;;;;;;;9.07;4.15;;;;;;;;;;4942218;29;20043;-96
2023/07/04 11:40:00;;;;;;;7.70;4.43;;;;;;;;;;4935303;29;20039;-96
2023/07/04 11:42:59;;;;;;;;;;;;;;;;;;;;;
2023/07/04 11:45:29;;;;;;;8.18;4.28;;;;;;;;;;4927903;29;20123;-96
2023/07/04 11:48:02;;;;;;;7.20;4.10;;;;;;;;;;4925483;29;20580;-95
2023/07/04 11:50:42;;;;;;;9.02;4.13;;;;;;;;;;4941382;29;20048;-95
2023/07/04 11:53:42;;;;;;;7.38;4.35;;;;;;;;;;4947110;29;20043;-96
2023/07/04 11:56:18;;;;;;;6.63;4.70;;;;;;;;;;4945414;29;20023;-96
2023/07/04 11:59:03;;;;;;;;;;;;;;;;;;;;;
2023/07/04 12:02:25;;;;;;;8.70;4.70;;;;;;;;;;4928186;29;20038;-96
2023/07/04 12:05:05;;;;;;;7.80;4.32;;;;;;;;;;4938797;29;20032;-96
2023/07/04 12:13:41;;;;;;;;;;;;;;;;;;;;;
2023/07/04 12:16:36;;;;;;;14.55;5.03;;;;;;;;;;4929267;29;20072;-96
2023/07/04 12:19:18;;;;;;;17.17;5.00;;;;;;;;;;4943511;29;20611;-96
2023/07/04 12:21:52;;;;;;;6.57;3.95;;;;;;;;;;4909709;29;20071;-96
2023/07/04 12:24:48;;;;;;;;;;;;;;;;;;;;;
2023/07/04 12:27:18;;;;;;;9.10;4.45;;;;;;;;;;4943027;29;20092;-96
2023/07/04 12:29:52;;;;;;;5.95;4.18;;;;;;;;;;4913198;29;20036;-96
2023/07/04 12:33:08;;;;;;;;;;;;;;;;;;;;;
2023/07/04 12:36:30;;;;;;;;;;;;;;;;;;;;;
2023/07/04 12:39:20;;;;;;;8.77;4.00;;;;;;;;;;4863875;29;20100;-95
2023/07/04 12:42:09;;;;;;;;;;;;;;;;;;;;;
2023/07/04 12:45:21;;;;;;;;;;;;;;;;;;;;;
2023/07/04 12:51:36;;;;;;;10.95;4.50;;;;;;;;;;4887879;29;20104;-96
2023/07/04 12:57:21;;;;;;;10.25;4.72;;;;;;;;;;4836313;29;20034;-95
2023/07/04 13:00:24;;;;;;;;;;;;;;;;;;;;;
2023/07/04 13:07:09;;;;;;;9.65;3.80;;;;;;;;;;4775964;29;20028;-94
2023/07/04 13:09:43;;;;;;;5.25;3.45;;;;;;;;;;4751380;30;20483;-95
2023/07/04 13:12:30;;;;;;;5.90;3.80;;;;;;;;;;4754410;30;20062;-92
2023/07/04 13:15:24;;;;;;;7.10;4.07;;;;;;;;;;4770031;29;20070;-96
2023/07/04 13:18:42;;;;;;;;;;;;;;;;;;;;;
2023/07/04 13:21:23;;;;;;;7.90;4.30;;;;;;;;;;4753938;30;20028;-96
2023/07/04 13:24:31;;;;;;;8.38;4.50;;;;;;;;;;4773422;29;20038;-96
2023/07/04 13:27:16;;;;;;;8.23;4.75;;;;;;;;;;4814471;29;20167;-95
2023/07/04 13:32:52;;;;;;;10.15;4.53;;;;;;;;;;4827050;29;20078;-96
2023/07/04 13:36:00;;;;;;;;;;;;;;;;;;;;;
2023/07/04 13:38:32;;;;;;;7.95;4.22;;;;;;;;;;4827075;29;20125;-96
2023/07/04 13:40:58;;;;;;;5.90;3.80;;;;;;;;;;4841950;29;20045;-93
2023/07/04 13:43:28;;;;;;;9.93;4.10;;;;;;;;;;4857028;29;20041;-96
2023/07/04 13:46:00;;;;;;;7.97;4.32;;;;;;;;;;4846900;29;20045;-96
2023/07/04 13:52:10;;;;;;;;;;;;;;;;;;;;;
2023/07/04 13:54:36;;;;;;;8.65;4.65;;;;;;;;;;4917960;29;20040;-91
2023/07/04 13:57:11;;;;;;;8.13;4.25;;;;;;;;;;4909250;29;20012;-96
2023/07/04 14:06:06;;;;;;;6.30;3.90;;;;;;;;;;4836427;29;20041;-92
2023/07/04 14:08:46;;;;;;;;;;;;;;;;;;;;;
2023/07/04 14:11:32;;;;;;;6.43;3.70;;;;;;;;;;4843268;29;20037;-93
2023/07/04 14:14:21;;;;;;;8.30;3.92;;;;;;;;;;4845308;29;20034;-96
2023/07/04 14:17:00;;;;;;;6.97;3.92;;;;;;;;;;4818945;29;20054;-96
2023/07/04 14:19:26;;;;;;;7.63;3.78;;;;;;;;;;4847601;29;20042;-96
2023/07/04 14:21:58;;;;;;;7.25;3.60;;;;;;;;;;4846775;29;20102;-95
2023/07/04 14:27:40;;;;;;;7.63;4.15;;;;;;;;;;5064871;23;20473;-92
2023/07/04 14:30:21;;;;;;;9.60;4.15;;;;;;;;;;4943298;29;20508;-94
2023/07/04 14:33:06;;;;;;;;;;;;;;;;;;;;;
2023/07/04 14:35:45;;;;;;;7.43;3.60;;;;;;;;;;4944792;29;20107;-96
2023/07/04 14:41:48;;;;;;;10.15;4.13;;;;;;;;;;4868952;29;20052;-96
2023/07/04 14:44:29;;;;;;;7.33;4.40;;;;;;;;;;4901840;29;20099;-96
2023/07/04 14:50:12;;;;;;;7.00;4.03;;;;;;;;;;4881832;29;20107;-95
2023/07/04 14:52:38;;;;;;;10.38;4.18;;;;;;;;;;4878536;29;20139;-93
2023/07/04 14:55:09;;;;;;;7.97;4.25;;;;;;;;;;4874186;29;20109;-94
2023/07/04 14:57:36;;;;;;;7.35;4.55;;;;;;;;;;4851023;29;20062;-94
2023/07/04 15:00:03;;;;;;;8.57;4.40;;;;;;;;;;4922645;29;20028;-96
2023/07/04 15:02:33;;;;;;;10.68;4.50;;;;;;;;;;5107630;23;20147;-96
2023/07/04 15:05:02;;;;;;;10.30;4.47;;;;;;;;;;4906652;29;20478;-95
2023/07/04 15:07:38;;;;;;;11.15;4.07;;;;;;;;;;5184291;23;20218;-94
2023/07/04 15:10:04;;;;;;;9.18;4.70;;;;;;;;;;4904902;29;20071;-92
2023/07/04 15:12:40;;;;;;;9.10;4.28;;;;;;;;;;5017575;23;20118;-95
2023/07/04 15:15:09;;;;;;;7.72;4.00;;;;;;;;;;4941479;29;20114;-94
2023/07/04 15:17:41;;;;;;;6.43;4.05;;;;;;;;;;4941848;29;20031;-92
2023/07/04 15:20:07;;;;;;;6.07;3.75;;;;;;;;;;4941750;29;20027;-93
2023/07/04 15:29:06;;;;;;;30.20;5.13;;;;;;;;;;4903394;29;20051;-96
2023/07/04 15:31:38;;;;;;;6.20;3.70;;;;;;;;;;4884020;29;20474;-94
2023/07/04 15:34:07;;;;;;;10.73;4.25;;;;;;;;;;4884194;29;20028;-95
2023/07/04 15:36:42;;;;;;;7.18;4.30;;;;;;;;;;4896887;29;20043;-93
2023/07/04 15:39:17;;;;;;;8.30;3.88;;;;;;;;;;4902910;29;20537;-92
2023/07/04 15:41:49;;;;;;;9.27;4.45;;;;;;;;;;4902341;29;20036;-93
2023/07/04 15:44:19;;;;;;;7.15;4.28;;;;;;;;;;4902689;29;20059;-94
2023/07/04 15:47:17;;;;;;;8.75;4.20;;;;;;;;;;4901563;29;20118;-93
2023/07/04 15:49:55;;;;;;;21.58;5.20;;;;;;;;;;4871375;29;20040;-93
2023/07/04 15:52:27;;;;;;;7.15;4.03;;;;;;;;;;4902501;29;20095;-95
2023/07/04 15:58:10;;;;;;;8.15;3.90;;;;;;;;;;4843127;29;20042;-96
2023/07/04 16:00:47;;;;;;;5.97;4.18;;;;;;;;;;4831306;29;20557;-93
2023/07/04 16:03:16;;;;;;;10.45;4.38;;;;;;;;;;4881639;29;20036;-93
2023/07/04 16:05:45;;;;;;;8.25;4.90;;;;;;;;;;4902371;29;20027;-92
2023/07/04 16:08:19;;;;;;;6.60;4.65;;;;;;;;;;4902045;29;20397;-95
2023/07/04 16:10:45;;;;;;;9.65;5.45;;;;;;;;;;4899273;29;20524;-94
2023/07/04 16:13:14;;;;;;;10.10;5.70;;;;;;;;;;4901957;29;20029;-92
2023/07/04 16:15:52;;;;;;;10.18;5.70;;;;;;;;;;4902080;29;20024;-93
2023/07/04 16:18:24;;;;;;;11.07;5.28;;;;;;;;;;4901970;29;20035;-93
2023/07/04 16:21:03;;;;;;;18.45;5.57;;;;;;;;;;4903183;29;20029;-95
2023/07/04 16:23:35;;;;;;;11.30;5.93;;;;;;;;;;4902836;29;20176;-95
2023/07/04 16:40:49;;;;;;;11.35;6.45;;;;;;;;;;4861128;29;20087;-94
2023/07/04 16:43:15;;;;;;;9.50;6.50;;;;;;;;;;4846763;29;20048;-92
2023/07/04 16:45:48;;;;;;;10.73;6.25;;;;;;;;;;4844933;29;20045;-93
2023/07/04 16:54:04;;;;;;;9.63;6.85;;;;;;;;;;5059205;23;19970;-94
2023/07/04 16:56:33;;;;;;;9.77;6.15;;;;;;;;;;4922083;29;20107;-96
2023/07/04 16:58:59;;;;;;;11.80;6.40;;;;;;;;;;4920741;29;20032;-91
2023/07/04 17:02:00;;;;;;;20.77;6.72;;;;;;;;;;4931449;29;20048;-94
2023/07/04 17:07:30;;;;;;;9.13;6.45;;;;;;;;;;4867718;29;20581;-90
2023/07/04 17:09:57;;;;;;;21.50;6.90;;;;;;;;;;4863550;29;20041;-94
2023/07/04 17:12:23;;;;;;;42.00;7.28;;;;;;;;;;4862459;29;20037;-94
2023/07/04 17:14:52;;;;;;;13.32;6.68;;;;;;;;;;4880620;29;20040;-96
2023/07/04 17:17:19;;;;;;;8.85;6.15;;;;;;;;;;4945708;29;20032;-94
2023/07/04 17:20:10;;;;;;;9.77;5.93;;;;;;;;;;4926711;29;20032;-95
2023/07/04 17:25:45;;;;;;;;;;;;;;;;;;;;;
2023/07/04 17:28:37;;;;;;;11.02;6.75;;;;;;;;;;4929172;29;20092;-96
2023/07/04 17:34:12;;;;;;;11.15;6.30;;;;;;;;;;4883615;29;20407;-95
2023/07/04 17:37:07;;;;;;;10.73;6.72;;;;;;;;;;4900275;29;20068;-94
2023/07/04 17:39:53;;;;;;;10.77;6.80;;;;;;;;;;4901567;29;20095;-96
2023/07/04 18:04:53;;;;;;;11.60;6.90;;;;;;;;;;5097164;23;20044;-90
2023/07/04 18:10:59;;;;;;;8.57;6.65;;;;;;;;;;4930203;29;20027;-92
2023/07/04 18:19:58;;;;;;;13.52;6.55;;;;;;;;;;4940116;29;20005;-96
2023/07/04 18:25:59;;;;;;;19.75;7.03;;;;;;;;;;4869276;29;20044;-96
2023/07/04 18:32:51;;;;;;;9.15;6.75;;;;;;;;;;4816158;29;20110;-92
2023/07/04 18:38:26;;;;;;;10.07;7.20;;;;;;;;;;4799174;29;20389;-94
2023/07/04 18:40:52;;;;;;;10.35;6.80;;;;;;;;;;4794827;29;20039;-91
2023/07/04 18:43:48;;;;;;;9.48;6.45;;;;;;;;;;4792238;29;20066;-91
2023/07/04 18:46:27;;;;;;;14.63;6.85;;;;;;;;;;4791221;29;20405;-92
2023/07/04 18:55:00;;;;;;;10.30;7.10;;;;;;;;;;4959239;23;20084;-93
2023/07/04 18:57:38;;;;;;;11.32;6.97;;;;;;;;;;4908384;29;20024;-96
2023/07/04 19:11:47;;;;;;;11.75;7.00;;;;;;;;;;4929150;29;20130;-96
2023/07/04 19:14:39;;;;;;;9.40;6.60;;;;;;;;;;4904744;29;20032;-96
2023/07/04 19:17:05;;;;;;;10.25;6.75;;;;;;;;;;4896091;29;20422;-92
2023/07/04 19:19:33;;;;;;;9.32;6.55;;;;;;;;;;4899846;29;20053;-93
2023/07/04 19:22:00;;;;;;;9.50;6.70;;;;;;;;;;4903072;29;20078;-95
2023/07/04 19:24:28;;;;;;;9.05;6.65;;;;;;;;;;4903576;29;20079;-93
2023/07/04 19:26:54;;;;;;;10.63;7.15;;;;;;;;;;4887986;29;20099;-94
2023/07/04 19:29:21;;;;;;;11.05;6.60;;;;;;;;;;4902881;29;20485;-93
2023/07/04 19:31:51;;;;;;;9.68;6.60;;;;;;;;;;4903129;29;20477;-92
2023/07/04 19:34:29;;;;;;;8.93;7.05;;;;;;;;;;4902943;29;20032;-92
2023/07/04 19:36:57;;;;;;;10.32;7.43;;;;;;;;;;4888887;29;20086;-94
2023/07/04 19:39:27;;;;;;;10.93;7.72;;;;;;;;;;4915059;29;20028;-92
2023/07/04 19:41:53;;;;;;;9.35;6.40;;;;;;;;;;4907944;29;20032;-93
2023/07/04 19:44:20;;;;;;;9.25;6.70;;;;;;;;;;4902887;29;20379;-94
2023/07/04 19:46:46;;;;;;;11.35;7.40;;;;;;;;;;4902870;29;20111;-94
2023/07/04 19:49:12;;;;;;;8.55;7.07;;;;;;;;;;4902618;29;20032;-93
2023/07/04 19:51:38;;;;;;;9.93;7.25;;;;;;;;;;4902811;29;20032;-94
2023/07/04 19:54:05;;;;;;;12.50;7.07;;;;;;;;;;4918417;29;20028;-94
2023/07/04 19:56:32;;;;;;;12.57;7.82;;;;;;;;;;4902525;29;20028;-92
2023/07/04 19:58:58;;;;;;;11.82;7.45;;;;;;;;;;4902636;29;20043;-93
2023/07/04 20:01:26;;;;;;;12.00;7.57;;;;;;;;;;4902014;29;20371;-93
2023/07/04 20:03:52;;;;;;;12.05;7.20;;;;;;;;;;4901993;29;20028;-94
2023/07/04 20:06:19;;;;;;;9.45;7.00;;;;;;;;;;4902328;29;20032;-94
2023/07/04 20:08:46;;;;;;;9.98;7.20;;;;;;;;;;4902087;29;20052;-93
2023/07/04 20:11:12;;;;;;;12.13;7.22;;;;;;;;;;4902339;29;20068;-93
2023/07/04 20:13:38;;;;;;;11.88;7.50;;;;;;;;;;4902579;29;20028;-95
2023/07/04 20:16:16;;;;;;;13.25;7.72;;;;;;;;;;4902941;29;20110;-92
2023/07/04 20:18:43;;;;;;;10.85;7.43;;;;;;;;;;4916131;29;20032;-93
2023/07/04 20:21:09;;;;;;;14.05;7.93;;;;;;;;;;4902210;29;20035;-94
2023/07/04 20:23:36;;;;;;;15.30;7.72;;;;;;;;;;4901665;29;20036;-93
2023/07/04 20:26:03;;;;;;;12.95;7.40;;;;;;;;;;4902479;29;20032;-95
2023/07/04 20:28:29;;;;;;;12.13;7.32;;;;;;;;;;4902329;29;20032;-93
2023/07/04 20:30:57;;;;;;;12.18;7.90;;;;;;;;;;4902115;29;20501;-95
2023/07/04 20:33:24;;;;;;;12.18;7.57;;;;;;;;;;4902105;29;20024;-94
2023/07/04 20:35:50;;;;;;;12.63;7.70;;;;;;;;;;4901610;29;20485;-92
2023/07/04 20:38:16;;;;;;;11.32;7.60;;;;;;;;;;4901970;29;20035;-93
2023/07/04 20:40:45;;;;;;;12.20;7.35;;;;;;;;;;4917624;29;20032;-95
2023/07/04 20:43:11;;;;;;;9.27;7.35;;;;;;;;;;4901792;29;20092;-93
2023/07/04 20:45:38;;;;;;;11.48;8.15;;;;;;;;;;4901818;29;20032;-96
2023/07/04 20:48:05;;;;;;;19.55;8.20;;;;;;;;;;4900516;29;20032;-94
2023/07/04 20:50:31;;;;;;;17.13;8.35;;;;;;;;;;4908883;29;20063;-95
2023/07/04 20:52:58;;;;;;;10.65;7.55;;;;;;;;;;4918346;29;20709;-93
2023/07/04 20:55:51;;;;;;;14.90;7.40;;;;;;;;;;4900973;29;20024;-93
2023/07/04 20:58:18;;;;;;;11.00;7.28;;;;;;;;;;4897762;29;20040;-93
2023/07/04 21:00:46;;;;;;;11.30;6.93;;;;;;;;;;4901297;29;20059;-95
2023/07/04 21:03:12;;;;;;;10.02;7.95;;;;;;;;;;4908388;29;20056;-94
2023/07/04 21:05:41;;;;;;;11.65;7.50;;;;;;;;;;4901508;29;20024;-95
2023/07/04 21:08:08;;;;;;;17.60;8.05;;;;;;;;;;4902106;29;20051;-93
2023/07/04 21:10:38;;;;;;;11.18;7.88;;;;;;;;;;4902348;29;20024;-94
2023/07/04 21:13:05;;;;;;;14.00;7.93;;;;;;;;;;4912074;29;20043;-94
2023/07/04 21:15:31;;;;;;;10.48;7.35;;;;;;;;;;4906130;29;20064;-96
2023/07/04 21:17:57;;;;;;;14.35;7.70;;;;;;;;;;4920807;29;20060;-94
2023/07/04 21:20:26;;;;;;;11.52;7.57;;;;;;;;;;4905338;29;20118;-95
2023/07/04 21:22:52;;;;;;;10.55;7.57;;;;;;;;;;4905669;29;20084;-94
2023/07/04 21:25:20;;;;;;;12.55;7.97;;;;;;;;;;4905209;29;20031;-94
2023/07/04 21:27:46;;;;;;;11.60;7.28;;;;;;;;;;4905369;29;20036;-94
2023/07/04 21:30:12;;;;;;;11.85;7.60;;;;;;;;;;4905187;29;20024;-94
2023/07/04 21:32:38;;;;;;;12.90;7.90;;;;;;;;;;4905675;29;20111;-95
2023/07/04 21:35:05;;;;;;;11.10;7.43;;;;;;;;;;4905274;29;20028;-93
2023/07/04 21:37:31;;;;;;;11.20;7.13;;;;;;;;;;4905114;29;20118;-94
2023/07/04 21:39:57;;;;;;;11.93;7.88;;;;;;;;;;4905223;29;20051;-94
2023/07/04 21:42:23;;;;;;;13.35;8.32;;;;;;;;;;4904167;29;20485;-95
2023/07/04 21:44:53;;;;;;;12.65;8.00;;;;;;;;;;4904869;29;20485;-94
2023/07/04 21:47:19;;;;;;;11.18;8.00;;;;;;;;;;4905141;29;20032;-94
2023/07/04 21:49:46;;;;;;;14.27;8.95;;;;;;;;;;4904610;29;20644;-94
2023/07/04 21:52:12;;;;;;;17.15;8.73;;;;;;;;;;4904910;29;20060;-94
2023/07/04 21:54:38;;;;;;;12.65;8.60;;;;;;;;;;4904649;29;20039;-94
2023/07/04 21:57:04;;;;;;;11.75;7.65;;;;;;;;;;4904729;29;20176;-93
2023/07/04 21:59:30;;;;;;;15.13;9.05;;;;;;;;;;4904731;29;20046;-94
2023/07/04 22:01:58;;;;;;;13.35;8.02;;;;;;;;;;4938255;29;20468;-93
2023/07/04 22:04:24;;;;;;;13.40;7.63;;;;;;;;;;4919440;29;20495;-94
2023/07/04 22:06:50;;;;;;;11.82;7.95;;;;;;;;;;4905500;29;20024;-94
2023/07/04 22:09:18;;;;;;;13.95;8.30;;;;;;;;;;4903983;29;20521;-93
2023/07/04 22:11:45;;;;;;;13.13;8.05;;;;;;;;;;4904269;29;20059;-95
2023/07/04 22:14:11;;;;;;;12.75;8.40;;;;;;;;;;4913131;29;20039;-94
2023/07/04 22:16:37;;;;;;;12.25;7.63;;;;;;;;;;4904443;29;20032;-93
2023/07/04 22:19:03;;;;;;;13.20;8.48;;;;;;;;;;4903963;29;20056;-94
2023/07/04 22:21:29;;;;;;;12.23;8.07;;;;;;;;;;4904558;29;20028;-94
2023/07/04 22:23:56;;;;;;;14.93;8.85;;;;;;;;;;4904289;29;20039;-94
2023/07/04 22:26:22;;;;;;;11.75;7.72;;;;;;;;;;4904700;29;20056;-94
2023/07/04 22:28:48;;;;;;;11.52;8.00;;;;;;;;;;4904218;29;20036;-93
2023/07/04 22:31:16;;;;;;;16.10;8.68;;;;;;;;;;4904133;29;20486;-94
2023/07/04 22:33:43;;;;;;;12.57;8.38;;;;;;;;;;4904545;29;20039;-94
2023/07/04 22:36:09;;;;;;;13.57;7.85;;;;;;;;;;4904071;29;20381;-95
2023/07/04 22:38:35;;;;;;;15.25;8.48;;;;;;;;;;4903952;29;20033;-95
2023/07/04 22:41:02;;;;;;;14.25;7.63;;;;;;;;;;4903873;29;20032;-93
2023/07/04 22:43:28;;;;;;;11.82;8.38;;;;;;;;;;4903304;29;20051;-92
2023/07/04 22:45:58;;;;;;;15.63;8.45;;;;;;;;;;4903405;29;20028;-94
2023/07/04 22:48:26;;;;;;;12.25;8.00;;;;;;;;;;4903826;29;20028;-94
2023/07/04 22:50:57;;;;;;;14.60;7.85;;;;;;;;;;4904253;29;20180;-94
2023/07/04 22:53:23;;;;;;;12.00;8.15;;;;;;;;;;4904329;29;20045;-94
2023/07/04 22:55:49;;;;;;;12.05;8.23;;;;;;;;;;4906260;29;20055;-95
2023/07/04 22:58:15;;;;;;;11.95;8.05;;;;;;;;;;4907041;29;20039;-94
2023/07/04 23:00:42;;;;;;;11.90;8.70;;;;;;;;;;4903627;29;20032;-93
2023/07/04 23:03:09;;;;;;;16.73;9.40;;;;;;;;;;4904236;29;20068;-94
2023/07/04 23:05:36;;;;;;;15.65;9.02;;;;;;;;;;4903616;29;20020;-94
2023/07/04 23:08:02;;;;;;;15.43;8.75;;;;;;;;;;4903193;29;20048;-94
2023/07/04 23:10:28;;;;;;;14.35;8.82;;;;;;;;;;4903649;29;20027;-94
2023/07/04 23:12:57;;;;;;;14.27;8.30;;;;;;;;;;4903261;29;20035;-94
2023/07/04 23:15:23;;;;;;;20.20;8.90;;;;;;;;;;4902910;29;20031;-94
2023/07/04 23:17:50;;;;;;;16.65;8.63;;;;;;;;;;4903445;29;20055;-95
2023/07/04 23:20:16;;;;;;;16.13;8.52;;;;;;;;;;4903349;29;20032;-96
2023/07/04 23:22:45;;;;;;;15.98;9.60;;;;;;;;;;4903408;29;20127;-96
2023/07/04 23:25:12;;;;;;;15.23;9.02;;;;;;;;;;4903023;29;20485;-94
2023/07/04 23:27:38;;;;;;;17.38;9.30;;;;;;;;;;4903558;29;20119;-95
2023/07/04 23:30:13;;;;;;;17.40;10.07;;;;;;;;;;4918490;29;20048;-94
2023/07/04 23:32:39;;;;;;;18.20;9.30;;;;;;;;;;4903432;29;20043;-95
2023/07/04 23:35:05;;;;;;;19.75;9.70;;;;;;;;;;4902448;29;20024;-96
2023/07/04 23:37:31;;;;;;;11.45;7.60;;;;;;;;;;4902910;29;20123;-94
2023/07/04 23:39:58;;;;;;;14.68;8.90;;;;;;;;;;4903672;29;20028;-94
2023/07/04 23:42:24;;;;;;;14.32;8.60;;;;;;;;;;4903049;29;20076;-94
2023/07/04 23:44:50;;;;;;;13.00;7.80;;;;;;;;;;4903624;29;20028;-94
2023/07/04 23:47:16;;;;;;;18.25;9.05;;;;;;;;;;4902651;29;20028;-94
2023/07/04 23:49:45;;;;;;;10.90;8.20;;;;;;;;;;4902870;29;20453;-95
2023/07/04 23:52:11;;;;;;;13.52;9.35;;;;;;;;;;4903408;29;20060;-94
2023/07/04 23:54:37;;;;;;;14.52;8.52;;;;;;;;;;4903018;29;20036;-94
2023/07/04 23:57:04;;;;;;;16.02;9.63;;;;;;;;;;4915723;29;20119;-94
2023/07/04 23:59:30;;;;;;;16.27;8.50;;;;;;;;;;4902595;29;20043;-95
